Airport ICAO


18:32 UTC

14°C

Clear skies


An affordable passengers' Moving Map for your aircraft. Made for the iPad and the iPhone
More information here

LFTH Le Palyvestre


Hyeres FRANCE   VFR CAVOK


METAR LFTH 231800Z AUTO 00000KT CAVOK 14/10 Q1022 NOSIG 0h32min

TAF LFTH 231400Z 2315/2415 VRB04KT CAVOK 4h32min





NOTAMS

OPEN